This is the latest recevied weather packets stored in our database for station/object KA3RQR. If no packets are shown the sender has not sent any weather packets the latest 10 day(s).
| Time | Temp. | Humidity | Pressure | Rain* | Wind** | Luminosity | Snow |
|---|---|---|---|---|---|---|---|
| 1777917121 | 22.22° C | 37% | 1012.2 hPa | 0 mm | - | 60 W/m² | - |
| 1777916819 | 21.67° C | 39% | 1012.4 hPa | 0 mm | - | 57 W/m² | - |
| 1777916516 | 21.67° C | 39% | 1012.5 hPa | 0 mm | - | 61 W/m² | - |
| 1777916213 | 22.22° C | 38% | 1012.7 hPa | 0 mm | - | 80 W/m² | - |
| 1777915910 | 21.67° C | 42% | 1012.8 hPa | 0 mm | - | 67 W/m² | - |
| 1777915607 | 21.11° C | 41% | 1012.7 hPa | 0 mm | - | 55 W/m² | - |
| 1777915303 | 21.11° C | 39% | 1012.8 hPa | 0 mm | - | 54 W/m² | - |
| 1777914999 | 21.11° C | 38% | 1012.8 hPa | 0 mm | - | 52 W/m² | - |
| 1777914697 | 20.56° C | 40% | 1012.8 hPa | 0 mm | - | 52 W/m² | - |
| 1777914393 | 21.11° C | 39% | 1013.1 hPa | 0 mm | - | 52 W/m² | - |
| 1777914091 | 21.11° C | 40% | 1013.2 hPa | 0 mm | - | 52 W/m² | - |
| 1777913787 | 20.56° C | 40% | 1013.1 hPa | 0 mm | - | 52 W/m² | - |
| 1777913483 | 20.56° C | 40% | 1013.3 hPa | 0 mm | - | 51 W/m² | - |
| 1777913180 | 20.56° C | 40% | 1013.3 hPa | 0 mm | - | 51 W/m² | - |
| 1777912876 | 20.56° C | 40% | 1013.4 hPa | 0 mm | - | 50 W/m² | - |
| 1777912573 | 20.56° C | 41% | 1013.3 hPa | 0 mm | - | 49 W/m² | - |
| 1777912269 | 20.56° C | 40% | 1013.5 hPa | 0 mm | - | 49 W/m² | - |
| 1777911965 | 20° C | 41% | 1013.6 hPa | 0 mm | - | 49 W/m² | - |
| 1777911661 | 20° C | 40% | 1013.3 hPa | 0 mm | - | 49 W/m² | - |
| 1777911357 | 20° C | 41% | 1013.5 hPa | 0 mm | - | 48 W/m² | - |
| 1777911056 | 20° C | 40% | 1013.4 hPa | 0 mm | - | 170 W/m² | - |
| 1777910753 | 20° C | 40% | 1013.8 hPa | 0 mm | - | 66 W/m² | - |
| 1777910449 | 19.44° C | 42% | 1013.7 hPa | 0 mm | - | 65 W/m² | - |
| 1777910146 | 19.44° C | 39% | 1014 hPa | 0 mm | - | 47 W/m² | - |
| 1777909844 | 19.44° C | 39% | 1013.9 hPa | 0 mm | - | 50 W/m² | - |
* Rain latest hour (hover to see other rain measurements)
** Current wind speed in m/s (hover to see current wind gust speed)